Time;durP1;ratioP1;P1;durP2;ratioP2;P2;SDS_P1;SDS_P2;PMS_P1;PMS_P2;Temp;Humidity;BMP_temperature;BMP_pressure;BME280_temperature;BME280_humidity;BME280_pressure;Samples;Min_cycle;Max_cycle;Signal;HPM_P1;HPM_P2
2024/03/07 00:00:54;;;;;;;21.98;13.32;;;5.30;99.90;;;;;;4973015;28;20047;-70
2024/03/07 00:03:24;;;;;;;23.00;15.75;;;5.30;99.90;;;;;;4973787;28;20129;-70
2024/03/07 00:05:51;;;;;;;22.98;15.18;;;5.20;99.90;;;;;;4976614;28;20126;-70
2024/03/07 00:08:18;;;;;;;24.70;16.27;;;5.20;99.90;;;;;;4976626;28;20058;-70
2024/03/07 00:10:46;;;;;;;27.10;14.70;;;5.20;99.90;;;;;;4975730;28;20504;-70
2024/03/07 00:13:13;;;;;;;19.60;12.90;;;5.10;99.90;;;;;;4991417;28;20053;-70
2024/03/07 00:15:41;;;;;;;25.55;14.77;;;5.10;99.90;;;;;;4991123;28;20057;-70
2024/03/07 00:18:10;;;;;;;24.77;18.65;;;5.10;99.90;;;;;;4975501;28;20151;-70
2024/03/07 00:20:37;;;;;;;21.40;14.23;;;5.10;99.90;;;;;;4976138;28;20122;-70
2024/03/07 00:23:04;;;;;;;19.88;13.05;;;5.00;99.90;;;;;;5007557;28;20039;-70
2024/03/07 00:25:32;;;;;;;23.90;14.98;;;5.00;99.90;;;;;;4976086;28;20047;-70
2024/03/07 00:28:02;;;;;;;23.88;14.93;;;5.00;99.90;;;;;;4975098;28;20039;-70
2024/03/07 00:30:29;;;;;;;;;;;4.90;99.90;;;;;;4976429;28;20047;-70
2024/03/07 00:32:57;;;;;;;17.80;11.65;;;4.90;99.90;;;;;;4976247;28;19933;-70
2024/03/07 00:35:24;;;;;;;20.42;13.45;;;4.80;99.90;;;;;;4976012;28;20559;-70
2024/03/07 00:37:52;;;;;;;23.10;13.68;;;4.80;99.90;;;;;;4990885;28;20047;-70
2024/03/07 00:40:19;;;;;;;21.02;13.70;;;4.80;99.90;;;;;;4974659;28;20121;-70
2024/03/07 00:42:46;;;;;;;19.63;12.80;;;4.70;99.90;;;;;;4975719;28;20054;-70
2024/03/07 00:45:13;;;;;;;20.88;13.40;;;4.70;99.90;;;;;;4990635;28;20496;-70
2024/03/07 00:47:40;;;;;;;22.02;16.25;;;4.70;99.90;;;;;;4975697;28;20039;-70
2024/03/07 00:50:08;;;;;;;21.25;14.48;;;4.70;99.90;;;;;;4975849;28;20077;-70
2024/03/07 00:52:36;;;;;;;22.75;13.57;;;4.60;99.90;;;;;;4974450;28;20073;-70
2024/03/07 00:55:05;;;;;;;17.98;12.65;;;4.70;99.90;;;;;;4975713;28;20085;-70
2024/03/07 00:57:31;;;;;;;23.17;16.38;;;4.70;99.90;;;;;;4974167;28;20518;-70
2024/03/07 00:59:58;;;;;;;20.00;13.35;;;4.70;99.90;;;;;;4974429;28;20038;-70
2024/03/07 01:02:26;;;;;;;17.88;13.73;;;4.70;99.90;;;;;;4974568;28;20081;-70
2024/03/07 01:04:54;;;;;;;22.40;16.00;;;4.70;99.90;;;;;;4990247;28;20456;-70
2024/03/07 01:07:23;;;;;;;22.33;14.07;;;4.70;99.90;;;;;;4974418;28;20043;-70
2024/03/07 01:09:51;;;;;;;21.65;15.63;;;4.70;99.90;;;;;;4974210;28;20070;-70
2024/03/07 01:12:19;;;;;;;19.48;13.32;;;4.60;99.90;;;;;;4974313;28;20051;-70
2024/03/07 01:14:47;;;;;;;22.35;13.02;;;4.60;99.90;;;;;;4974380;28;20050;-70
2024/03/07 01:17:14;;;;;;;20.30;13.02;;;4.50;99.90;;;;;;4975365;28;20065;-70
2024/03/07 01:19:41;;;;;;;21.73;12.77;;;4.50;99.90;;;;;;4973820;28;20134;-70
2024/03/07 01:22:08;;;;;;;22.98;15.90;;;4.40;99.90;;;;;;4990142;28;20047;-70
2024/03/07 01:24:35;;;;;;;23.55;14.05;;;4.30;99.90;;;;;;4989657;28;20051;-70
2024/03/07 01:27:03;;;;;;;20.88;14.73;;;4.30;99.90;;;;;;4974132;28;20093;-70
2024/03/07 01:29:30;;;;;;;26.50;15.93;;;4.20;99.90;;;;;;4975088;28;20101;-70
2024/03/07 01:31:57;;;;;;;21.83;14.10;;;4.10;99.90;;;;;;4989734;28;20042;-71
2024/03/07 01:34:24;;;;;;;21.55;14.30;;;4.10;99.90;;;;;;4975210;28;20047;-70
2024/03/07 01:36:51;;;;;;;23.08;14.68;;;4.00;99.90;;;;;;4989677;28;20046;-70
2024/03/07 01:39:19;;;;;;;27.42;13.85;;;3.90;99.90;;;;;;4989587;28;20046;-70
2024/03/07 01:41:47;;;;;;;24.33;14.55;;;3.90;99.90;;;;;;4989706;28;20051;-70
2024/03/07 01:44:15;;;;;;;24.25;14.57;;;3.70;99.90;;;;;;4973494;28;20046;-70
2024/03/07 01:46:42;;;;;;;24.60;18.85;;;3.70;99.90;;;;;;4989540;28;20433;-70
2024/03/07 01:49:10;;;;;;;23.13;14.55;;;3.60;99.90;;;;;;4989751;28;20143;-70
2024/03/07 01:51:38;;;;;;;24.92;15.88;;;3.60;99.90;;;;;;4989595;28;20054;-70
2024/03/07 01:54:08;;;;;;;24.00;16.13;;;3.50;99.90;;;;;;4973391;28;20447;-70
2024/03/07 01:56:37;;;;;;;23.60;14.45;;;3.50;99.90;;;;;;4989535;28;20038;-70
2024/03/07 01:59:05;;;;;;;22.27;16.05;;;3.40;99.90;;;;;;4974564;28;20432;-70
2024/03/07 02:01:33;;;;;;;21.98;13.80;;;3.40;99.90;;;;;;4973213;28;20097;-70
2024/03/07 02:04:00;;;;;;;20.88;14.52;;;3.40;99.90;;;;;;4989212;28;20075;-70
2024/03/07 02:06:28;;;;;;;22.90;13.45;;;3.30;99.90;;;;;;4989058;28;20039;-71
2024/03/07 02:08:56;;;;;;;21.48;13.63;;;3.30;99.90;;;;;;4973179;28;20055;-70
2024/03/07 02:11:23;;;;;;;19.80;13.35;;;3.30;99.90;;;;;;4989246;28;20057;-70
2024/03/07 02:13:51;;;;;;;22.75;13.63;;;3.20;99.90;;;;;;4972929;28;20042;-70
2024/03/07 02:16:18;;;;;;;22.02;13.90;;;3.20;99.90;;;;;;4989326;28;20058;-70
2024/03/07 02:18:45;;;;;;;20.95;16.95;;;3.20;99.90;;;;;;4973084;28;20448;-70
2024/03/07 02:21:13;;;;;;;20.10;13.63;;;3.10;99.90;;;;;;4972950;28;20049;-70
2024/03/07 02:23:41;;;;;;;20.40;11.63;;;3.10;99.90;;;;;;4973170;28;20078;-70
2024/03/07 02:26:08;;;;;;;16.38;11.63;;;3.00;99.90;;;;;;4973853;28;20039;-70
2024/03/07 02:28:35;;;;;;;19.02;12.40;;;3.00;99.90;;;;;;4988465;28;20058;-70
2024/03/07 02:31:02;;;;;;;23.65;14.05;;;2.90;99.90;;;;;;4988661;28;20146;-70
2024/03/07 02:33:32;;;;;;;21.95;14.38;;;2.90;99.90;;;;;;4972607;28;20055;-70
2024/03/07 02:35:59;;;;;;;23.23;15.80;;;2.90;99.90;;;;;;4988624;28;20101;-70
2024/03/07 02:38:26;;;;;;;21.52;14.23;;;2.80;99.90;;;;;;4972724;28;20097;-70
2024/03/07 02:40:53;;;;;;;22.67;13.52;;;2.70;99.90;;;;;;4988325;28;20050;-70
2024/03/07 02:43:21;;;;;;;20.00;13.93;;;2.70;99.90;;;;;;4972552;28;20117;-70
2024/03/07 02:45:49;;;;;;;20.52;14.32;;;2.60;99.90;;;;;;4973485;28;20543;-70
2024/03/07 02:48:18;;;;;;;19.48;12.70;;;2.60;99.90;;;;;;4972790;28;20035;-70
2024/03/07 02:50:45;;;;;;;22.50;15.07;;;2.60;99.90;;;;;;4972852;28;20518;-70
2024/03/07 02:53:12;;;;;;;19.67;13.07;;;2.50;99.90;;;;;;4973890;28;20130;-70
2024/03/07 02:55:39;;;;;;;22.63;15.70;;;2.50;99.90;;;;;;4973755;28;20399;-70
2024/03/07 02:58:07;;;;;;;22.63;14.63;;;2.40;99.90;;;;;;4988406;28;20042;-70
2024/03/07 03:00:34;;;;;;;23.30;16.33;;;2.40;99.90;;;;;;4973605;28;20050;-70
2024/03/07 03:03:02;;;;;;;23.45;15.13;;;2.40;99.90;;;;;;4973471;28;20047;-70
2024/03/07 03:05:29;;;;;;;20.75;13.98;;;2.30;99.90;;;;;;4973707;28;20074;-70
2024/03/07 03:07:57;;;;;;;20.92;14.00;;;2.30;99.90;;;;;;4988392;28;20047;-70
2024/03/07 03:10:34;;;;;;;24.30;14.45;;;2.20;99.90;;;;;;4988344;28;20054;-70
2024/03/07 03:13:01;;;;;;;21.52;14.43;;;2.20;99.90;;;;;;4972288;28;20069;-70
2024/03/07 03:15:29;;;;;;;21.83;14.50;;;2.20;99.90;;;;;;4988231;28;20047;-70
2024/03/07 03:17:59;;;;;;;22.40;14.15;;;2.10;99.90;;;;;;4973302;28;20559;-70
2024/03/07 03:20:33;;;;;;;23.02;13.38;;;2.10;99.90;;;;;;4972593;28;20038;-70
2024/03/07 03:23:02;;;;;;;25.90;15.13;;;2.10;99.90;;;;;;4973543;28;20050;-70
2024/03/07 03:25:37;;;;;;;22.40;15.30;;;2.00;99.90;;;;;;4988585;28;20047;-70
2024/03/07 03:28:12;;;;;;;22.33;13.20;;;2.00;99.90;;;;;;4988076;28;20043;-70
2024/03/07 03:30:40;;;;;;;22.25;13.75;;;2.00;99.90;;;;;;4973395;28;20043;-70
2024/03/07 03:33:08;;;;;;;21.25;14.45;;;1.90;99.90;;;;;;4988095;28;20061;-70
2024/03/07 03:35:39;;;;;;;26.17;17.63;;;1.90;99.90;;;;;;4987490;28;20143;-70
2024/03/07 03:38:07;;;;;;;22.42;13.43;;;1.90;99.90;;;;;;4988286;28;20043;-70
2024/03/07 03:40:35;;;;;;;24.38;14.23;;;1.90;99.90;;;;;;4974292;28;20095;-70
2024/03/07 03:43:02;;;;;;;17.33;14.05;;;1.90;99.90;;;;;;4976894;28;20049;-70
2024/03/07 03:45:29;;;;;;;18.75;14.13;;;2.00;99.90;;;;;;4977111;28;20121;-70
2024/03/07 03:47:56;;;;;;;22.23;14.27;;;1.80;99.90;;;;;;4976781;28;20045;-70
2024/03/07 03:50:23;;;;;;;23.33;14.77;;;1.80;99.90;;;;;;4976930;28;20047;-70
2024/03/07 03:52:51;;;;;;;22.33;14.25;;;1.80;99.90;;;;;;4976812;28;20043;-70
2024/03/07 03:55:18;;;;;;;24.10;15.32;;;1.70;99.90;;;;;;4991577;28;20047;-70
2024/03/07 03:57:48;;;;;;;23.27;14.60;;;1.70;99.90;;;;;;4976783;28;20054;-70
2024/03/07 04:00:16;;;;;;;21.60;13.40;;;1.70;99.90;;;;;;4989738;28;20138;-70
2024/03/07 04:02:48;;;;;;;21.42;13.68;;;1.70;99.90;;;;;;4990753;28;20043;-70
2024/03/07 04:05:19;;;;;;;24.77;15.38;;;1.60;99.90;;;;;;4974498;28;20557;-70
2024/03/07 04:07:47;;;;;;;22.90;14.93;;;1.70;99.90;;;;;;4975188;28;20480;-70
2024/03/07 04:10:16;;;;;;;21.42;15.73;;;1.60;99.90;;;;;;4991518;28;20074;-70
2024/03/07 04:12:44;;;;;;;23.73;14.38;;;1.50;99.90;;;;;;4975415;28;20046;-69
2024/03/07 04:15:16;;;;;;;24.20;14.98;;;1.70;99.90;;;;;;4976345;28;20046;-70
2024/03/07 04:17:46;;;;;;;22.48;14.10;;;1.50;99.90;;;;;;4991055;28;20046;-70
2024/03/07 04:20:13;;;;;;;21.85;13.35;;;1.40;99.90;;;;;;4976165;28;20047;-69
2024/03/07 04:22:40;;;;;;;20.48;13.23;;;1.60;99.90;;;;;;4991188;28;20053;-70
2024/03/07 04:25:09;;;;;;;21.98;14.32;;;1.40;99.90;;;;;;4975006;28;20054;-70
2024/03/07 04:27:37;;;;;;;26.83;15.00;;;1.40;99.90;;;;;;4976092;28;20039;-70
2024/03/07 04:30:07;;;;;;;22.23;14.32;;;1.40;99.90;;;;;;4976050;28;20042;-70
2024/03/07 04:32:34;;;;;;;22.65;13.35;;;1.40;99.90;;;;;;5007363;28;20514;-70
2024/03/07 04:35:03;;;;;;;21.27;13.98;;;1.40;99.90;;;;;;5007391;28;20043;-70
2024/03/07 04:37:31;;;;;;;18.42;12.57;;;1.30;99.90;;;;;;4974871;28;20043;-70
2024/03/07 04:39:59;;;;;;;20.65;14.45;;;1.30;99.90;;;;;;4975898;28;20050;-70
2024/03/07 04:42:26;;;;;;;25.17;15.43;;;1.30;99.90;;;;;;5006870;28;20054;-70
2024/03/07 04:44:53;;;;;;;22.95;14.07;;;1.30;99.90;;;;;;4990837;28;20039;-70
2024/03/07 04:47:20;;;;;;;23.55;13.82;;;1.40;99.90;;;;;;5006767;28;20039;-70
2024/03/07 04:49:47;;;;;;;23.75;15.55;;;1.40;99.90;;;;;;4974853;28;20043;-70
2024/03/07 04:52:14;;;;;;;21.58;14.65;;;1.30;99.90;;;;;;4990480;28;20097;-70
2024/03/07 04:54:41;;;;;;;24.73;15.05;;;1.40;99.90;;;;;;4975810;28;20069;-70
2024/03/07 04:57:08;;;;;;;23.80;13.95;;;1.30;99.90;;;;;;4974471;28;20110;-70
2024/03/07 04:59:35;;;;;;;25.20;17.75;;;1.30;99.90;;;;;;4974427;28;20414;-70
2024/03/07 05:02:02;;;;;;;24.05;15.65;;;1.30;99.90;;;;;;4990389;28;20046;-70
2024/03/07 05:04:30;;;;;;;23.63;15.57;;;1.30;99.90;;;;;;4974163;28;20098;-70
2024/03/07 05:06:57;;;;;;;23.50;14.63;;;1.30;99.90;;;;;;4975444;28;20043;-70
2024/03/07 05:09:25;;;;;;;24.08;18.75;;;1.20;99.90;;;;;;4975274;28;20447;-70
2024/03/07 05:11:53;;;;;;;20.02;13.65;;;1.30;99.90;;;;;;4975468;28;20129;-70
2024/03/07 05:14:25;;;;;;;22.38;12.07;;;1.20;99.90;;;;;;4975382;28;20070;-70
2024/03/07 05:17:04;;;;;;;21.23;12.20;;;1.20;99.90;;;;;;4975340;28;20047;-70
2024/03/07 05:19:33;;;;;;;24.17;15.45;;;1.10;99.90;;;;;;4973859;28;20047;-70
2024/03/07 05:22:01;;;;;;;20.88;14.65;;;1.10;99.90;;;;;;4974038;28;20093;-70
2024/03/07 05:24:28;;;;;;;24.48;14.73;;;1.10;99.90;;;;;;4974957;28;20492;-70
2024/03/07 05:26:55;;;;;;;20.00;14.02;;;1.10;99.90;;;;;;4973839;28;20043;-70
2024/03/07 05:29:22;;;;;;;29.83;16.17;;;1.10;99.90;;;;;;4973704;28;20045;-71
2024/03/07 05:31:49;;;;;;;27.73;17.02;;;1.10;99.90;;;;;;4974035;28;20057;-70
2024/03/07 05:34:19;;;;;;;23.13;14.13;;;1.20;99.90;;;;;;4989997;28;20070;-70
2024/03/07 05:36:46;;;;;;;24.13;15.88;;;1.10;99.90;;;;;;4974087;28;20507;-70
2024/03/07 05:39:15;;;;;;;25.60;15.85;;;1.00;99.90;;;;;;4973353;28;20055;-70
2024/03/07 05:41:44;;;;;;;29.10;16.33;;;1.00;99.90;;;;;;4973498;28;20050;-70
2024/03/07 05:44:12;;;;;;;23.15;15.60;;;1.00;99.90;;;;;;4974851;28;20047;-70
2024/03/07 05:46:46;;;;;;;29.25;18.48;;;0.90;99.90;;;;;;4989619;28;20069;-70
2024/03/07 05:49:14;;;;;;;29.30;16.85;;;1.10;99.90;;;;;;4973508;28;20496;-70
2024/03/07 05:51:45;;;;;;;26.75;18.08;;;0.90;99.90;;;;;;4974719;28;20046;-70
2024/03/07 05:54:12;;;;;;;;;;;0.90;99.90;;;;;;4975344;28;20057;-70
2024/03/07 05:56:40;;;;;;;27.60;17.58;;;0.90;99.90;;;;;;4974630;28;19921;-70
2024/03/07 05:59:11;;;;;;;30.83;19.20;;;0.90;99.90;;;;;;5005873;28;20055;-70
2024/03/07 06:01:39;;;;;;;;;;;0.90;99.90;;;;;;4973859;28;20492;-70
2024/03/07 06:04:07;;;;;;;27.15;16.77;;;0.90;99.90;;;;;;4974230;28;19953;-70
2024/03/07 06:06:35;;;;;;;34.83;22.52;;;0.80;99.90;;;;;;4973353;28;20264;-70
2024/03/07 06:09:08;;;;;;;30.92;19.75;;;0.80;99.90;;;;;;4973042;28;20085;-71
2024/03/07 06:11:36;;;;;;;27.40;18.50;;;0.90;99.90;;;;;;5005530;28;20137;-70
2024/03/07 06:14:05;;;;;;;22.02;13.55;;;0.80;99.90;;;;;;5005386;28;20052;-70
2024/03/07 06:16:35;;;;;;;25.90;15.82;;;0.80;99.90;;;;;;4972845;28;20046;-70
2024/03/07 06:19:09;;;;;;;22.02;14.45;;;0.90;99.90;;;;;;4974222;28;20500;-70
2024/03/07 06:21:41;;;;;;;29.30;17.98;;;0.90;99.90;;;;;;4973944;28;20049;-70
2024/03/07 06:24:11;;;;;;;28.52;17.20;;;0.90;99.90;;;;;;4974353;28;20078;-70
2024/03/07 06:29:16;;;;;;;31.40;19.38;;;1.00;99.90;;;;;;4974119;28;20054;-70
2024/03/07 06:31:48;;;;;;;29.98;18.48;;;1.00;99.90;;;;;;4988794;28;20137;-70
2024/03/07 06:34:15;;;;;;;24.60;15.40;;;1.00;99.90;;;;;;4973964;28;20078;-70
2024/03/07 06:36:42;;;;;;;31.73;19.38;;;1.10;99.90;;;;;;4988556;28;20145;-70
2024/03/07 06:39:11;;;;;;;34.90;20.58;;;1.10;99.90;;;;;;5005171;28;20042;-70
2024/03/07 06:41:39;;;;;;;27.80;18.05;;;1.20;99.90;;;;;;4973639;28;20125;-70
2024/03/07 06:44:09;;;;;;;33.28;19.85;;;1.20;99.90;;;;;;4988594;28;20507;-70
2024/03/07 06:46:36;;;;;;;31.10;16.75;;;1.30;99.90;;;;;;5003844;28;20042;-70
2024/03/07 06:49:10;;;;;;;32.65;21.50;;;1.50;99.90;;;;;;4974065;28;20439;-70
2024/03/07 06:51:37;;;;;;;35.03;19.35;;;1.60;99.90;;;;;;4972381;28;20058;-70
2024/03/07 06:54:05;;;;;;;37.17;21.75;;;1.80;99.90;;;;;;4973787;28;20137;-70
2024/03/07 06:56:33;;;;;;;42.08;23.15;;;1.80;99.90;;;;;;5004325;28;20117;-70
2024/03/07 06:59:04;;;;;;;35.58;19.75;;;1.90;99.90;;;;;;5004944;28;20073;-70
2024/03/07 07:01:31;;;;;;;29.58;17.60;;;1.90;99.90;;;;;;5003502;28;20082;-70
2024/03/07 07:03:58;;;;;;;44.67;21.85;;;2.00;99.90;;;;;;4973569;28;20215;-70
2024/03/07 07:06:26;;;;;;;55.83;30.40;;;2.00;99.90;;;;;;4988516;28;20039;-70
2024/03/07 07:08:53;;;;;;;36.60;19.73;;;2.10;99.90;;;;;;4973508;28;20489;-70
2024/03/07 07:11:20;;;;;;;44.67;19.88;;;2.10;99.90;;;;;;4988448;28;20472;-71
2024/03/07 07:13:47;;;;;;;61.97;22.63;;;2.10;99.90;;;;;;4989953;28;20051;-70
2024/03/07 07:16:15;;;;;;;42.40;20.25;;;2.10;99.90;;;;;;4992266;28;20064;-70
2024/03/07 07:18:43;;;;;;;45.05;20.95;;;2.20;99.90;;;;;;5008592;28;20105;-70
2024/03/07 07:21:10;;;;;;;41.28;19.58;;;2.20;99.90;;;;;;4977396;28;20049;-70
2024/03/07 07:23:38;;;;;;;43.15;24.15;;;2.30;99.90;;;;;;4992058;28;20420;-70
2024/03/07 07:26:06;;;;;;;38.72;18.83;;;2.30;99.90;;;;;;4992275;28;20047;-70
2024/03/07 07:28:33;;;;;;;30.88;17.92;;;2.30;99.90;;;;;;4977186;28;20057;-70
2024/03/07 07:31:00;;;;;;;45.40;21.00;;;2.30;99.90;;;;;;4992519;28;20050;-70
2024/03/07 07:33:27;;;;;;;41.13;22.40;;;2.30;99.90;;;;;;4977513;28;20093;-70
2024/03/07 07:35:54;;;;;;;40.40;21.23;;;2.40;99.90;;;;;;4977300;28;20524;-70
2024/03/07 07:38:21;;;;;;;44.35;21.35;;;2.30;99.90;;;;;;4992312;28;20476;-70
2024/03/07 07:40:49;;;;;;;33.72;17.17;;;2.40;99.90;;;;;;5008174;28;20046;-70
2024/03/07 07:43:17;;;;;;;28.35;14.30;;;2.40;99.90;;;;;;4991606;28;20519;-70
2024/03/07 07:45:48;;;;;;;32.33;16.15;;;2.40;99.90;;;;;;4976823;28;20089;-70
2024/03/07 07:48:16;;;;;;;35.05;18.67;;;2.40;99.90;;;;;;4977355;28;20043;-70
2024/03/07 07:50:43;;;;;;;32.28;16.58;;;2.60;99.90;;;;;;5008033;28;20121;-70
2024/03/07 07:53:10;;;;;;;38.78;20.08;;;2.50;99.90;;;;;;4976852;28;20066;-70
2024/03/07 07:55:38;;;;;;;34.47;17.98;;;2.70;99.90;;;;;;4991521;28;20051;-70
2024/03/07 07:58:05;;;;;;;45.17;25.73;;;2.60;99.90;;;;;;4991828;28;20397;-70
2024/03/07 08:00:32;;;;;;;29.85;16.65;;;2.60;99.90;;;;;;5007785;28;20093;-70
2024/03/07 08:03:06;;;;;;;40.65;22.08;;;2.70;99.90;;;;;;4991178;28;20049;-70
2024/03/07 08:05:35;;;;;;;45.47;23.02;;;2.70;99.90;;;;;;4976687;28;20042;-70
2024/03/07 08:08:11;;;;;;;41.47;21.80;;;2.80;99.90;;;;;;5007783;28;20050;-70
2024/03/07 08:10:39;;;;;;;34.45;21.15;;;2.90;99.90;;;;;;4976479;28;20467;-70
2024/03/07 08:13:10;;;;;;;35.17;20.00;;;2.90;99.90;;;;;;4975311;28;20141;-70
2024/03/07 08:15:37;;;;;;;34.72;16.63;;;2.90;99.90;;;;;;4991278;28;20047;-70
2024/03/07 08:18:08;;;;;;;33.67;19.27;;;3.00;99.90;;;;;;4976519;28;20085;-70
2024/03/07 08:20:36;;;;;;;31.95;18.13;;;3.00;99.90;;;;;;4976377;28;20051;-70
2024/03/07 08:23:03;;;;;;;29.85;16.08;;;3.00;99.90;;;;;;4975094;28;20050;-70
2024/03/07 08:25:30;;;;;;;29.58;20.55;;;3.00;99.90;;;;;;5007487;28;20400;-70
2024/03/07 08:27:58;;;;;;;32.17;16.25;;;3.00;99.90;;;;;;4990959;28;20500;-70
2024/03/07 08:30:28;;;;;;;26.40;15.38;;;3.00;99.90;;;;;;5007299;28;20065;-69
2024/03/07 08:32:56;;;;;;;35.33;19.42;;;3.00;99.90;;;;;;4991063;28;20062;-70
2024/03/07 08:35:24;;;;;;;28.50;14.15;;;3.00;99.90;;;;;;4976140;28;20053;-70
2024/03/07 08:37:53;;;;;;;18.92;10.50;;;3.00;99.90;;;;;;4975911;28;20058;-70
2024/03/07 08:40:22;;;;;;;30.50;17.45;;;3.10;99.90;;;;;;4990690;28;20055;-70
2024/03/07 08:42:56;;;;;;;32.33;17.05;;;3.10;99.90;;;;;;4975687;28;20039;-70
2024/03/07 08:45:26;;;;;;;33.17;18.35;;;3.00;99.90;;;;;;4976241;28;20459;-70
2024/03/07 08:47:54;;;;;;;27.73;14.77;;;3.00;99.90;;;;;;4990481;28;20066;-70
2024/03/07 08:50:23;;;;;;;30.48;15.80;;;3.10;99.90;;;;;;4975888;28;20034;-70
2024/03/07 08:52:50;;;;;;;38.15;19.48;;;3.10;99.90;;;;;;4975707;28;20049;-70
2024/03/07 08:55:21;;;;;;;34.17;21.30;;;3.20;99.90;;;;;;4975836;28;20378;-70
2024/03/07 08:57:49;;;;;;;34.60;20.17;;;3.30;99.90;;;;;;4990615;28;20480;-69
2024/03/07 09:00:23;;;;;;;35.88;22.85;;;3.30;99.90;;;;;;4990804;28;20047;-70
2024/03/07 09:02:59;;;;;;;24.73;14.07;;;3.30;99.90;;;;;;5006842;28;20046;-70
2024/03/07 09:05:27;;;;;;;32.60;18.17;;;3.30;99.90;;;;;;4974400;28;20129;-70
2024/03/07 09:07:55;;;;;;;30.58;16.08;;;3.30;99.90;;;;;;4975263;28;20050;-70
2024/03/07 09:10:23;;;;;;;31.13;16.92;;;3.30;99.90;;;;;;4990116;28;20051;-70
2024/03/07 09:12:52;;;;;;;30.38;16.30;;;3.30;99.90;;;;;;4975274;28;20051;-69
2024/03/07 09:15:21;;;;;;;27.75;15.18;;;3.40;99.90;;;;;;5006656;28;20047;-69
2024/03/07 09:17:49;;;;;;;23.98;11.75;;;3.40;99.90;;;;;;5006436;28;20051;-70
2024/03/07 09:20:16;;;;;;;15.48;10.63;;;3.40;99.90;;;;;;5006280;28;20051;-70
2024/03/07 09:22:44;;;;;;;26.27;14.68;;;3.40;99.90;;;;;;4990109;28;20523;-70
2024/03/07 09:25:12;;;;;;;29.48;17.92;;;3.50;99.90;;;;;;4973937;28;20495;-70
2024/03/07 09:27:40;;;;;;;34.33;17.70;;;3.60;99.90;;;;;;4975216;28;20106;-70
2024/03/07 09:30:11;;;;;;;28.73;16.60;;;3.70;99.90;;;;;;4975297;28;20113;-70
2024/03/07 09:32:40;;;;;;;32.63;18.08;;;3.80;99.90;;;;;;5005420;28;20050;-70
2024/03/07 09:35:11;;;;;;;32.70;16.25;;;3.80;99.90;;;;;;4974810;28;20094;-70
2024/03/07 09:37:40;;;;;;;35.65;16.60;;;3.90;99.90;;;;;;5005812;28;20046;-69
2024/03/07 09:40:17;;;;;;;32.00;16.35;;;4.10;99.90;;;;;;4989355;28;20515;-70
2024/03/07 09:42:49;;;;;;;24.05;12.60;;;4.30;99.90;;;;;;4973791;28;20042;-70
2024/03/07 09:45:19;;;;;;;31.10;17.70;;;4.50;99.90;;;;;;4989789;28;20066;-70
2024/03/07 09:47:50;;;;;;;31.70;16.50;;;4.70;99.90;;;;;;5005273;28;20123;-70
2024/03/07 09:50:23;;;;;;;36.42;18.40;;;4.80;99.90;;;;;;4989562;28;20572;-69
2024/03/07 09:52:53;;;;;;;26.48;14.90;;;5.00;99.90;;;;;;4974764;28;20043;-70
2024/03/07 09:55:21;;;;;;;34.95;18.77;;;5.20;99.90;;;;;;4974635;28;20105;-69
2024/03/07 09:57:50;;;;;;;31.52;16.85;;;5.30;99.90;;;;;;4974574;28;20043;-70
2024/03/07 10:00:25;;;;;;;34.53;16.60;;;5.40;99.90;;;;;;4974270;28;20050;-70
2024/03/07 10:02:56;;;;;;;33.45;17.58;;;5.40;99.90;;;;;;4974593;28;20041;-70
2024/03/07 10:05:27;;;;;;;28.67;15.25;;;5.40;99.90;;;;;;4989683;28;20039;-70
2024/03/07 10:07:55;;;;;;;31.98;17.92;;;5.50;99.90;;;;;;5005730;28;20093;-70
2024/03/07 10:10:23;;;;;;;33.45;15.65;;;5.60;99.90;;;;;;5006003;28;20054;-70
2024/03/07 10:12:52;;;;;;;31.77;15.95;;;5.70;99.90;;;;;;4973285;28;20662;-70
2024/03/07 10:15:19;;;;;;;31.48;16.45;;;5.70;99.90;;;;;;5005488;28;20046;-70
2024/03/07 10:17:46;;;;;;;22.95;13.05;;;5.80;99.90;;;;;;4974403;28;20058;-70
2024/03/07 10:20:18;;;;;;;29.65;15.95;;;6.00;99.90;;;;;;4988889;28;20042;-70
2024/03/07 10:22:45;;;;;;;31.10;16.65;;;6.10;99.90;;;;;;4989019;28;20047;-69
2024/03/07 10:25:12;;;;;;;28.10;16.23;;;6.20;99.90;;;;;;4988916;28;20125;-70
2024/03/07 10:27:39;;;;;;;28.85;14.48;;;6.30;99.90;;;;;;4974146;28;20058;-70
2024/03/07 10:30:09;;;;;;;31.05;14.20;;;6.40;99.90;;;;;;5005379;28;20086;-70
2024/03/07 10:32:37;;;;;;;24.80;13.50;;;6.40;99.90;;;;;;5005292;28;20058;-70
2024/03/07 10:35:07;;;;;;;36.40;18.27;;;6.40;99.90;;;;;;5005096;28;20078;-71
2024/03/07 10:37:37;;;;;;;32.88;16.95;;;6.60;99.90;;;;;;4988883;28;20043;-70
2024/03/07 10:40:15;;;;;;;32.13;18.05;;;6.70;99.90;;;;;;4988341;28;20054;-70
2024/03/07 10:42:51;;;;;;;26.23;15.00;;;6.80;99.90;;;;;;5001970;28;20039;-70
2024/03/07 10:45:21;;;;;;;21.88;12.73;;;7.00;99.90;;;;;;4973739;28;20046;-70
2024/03/07 10:48:00;;;;;;;28.27;15.50;;;7.00;99.90;;;;;;4987938;28;20085;-70
2024/03/07 10:50:40;;;;;;;30.23;15.95;;;7.00;99.90;;;;;;4973826;28;20047;-70
2024/03/07 10:53:31;;;;;;;27.35;13.90;;;7.10;99.90;;;;;;4988496;28;20113;-69
2024/03/07 10:56:32;;;;;;;24.08;12.10;;;7.10;99.90;;;;;;4973764;28;20133;-70
2024/03/07 10:59:16;;;;;;;28.55;16.23;;;7.10;99.90;;;;;;4973814;28;20082;-70
2024/03/07 11:02:24;;;;;;;20.13;12.18;;;7.10;99.90;;;;;;4973664;28;20055;-70
2024/03/07 11:04:51;;;;;;;23.67;13.32;;;7.20;99.90;;;;;;4972401;28;20057;-70
2024/03/07 11:07:21;;;;;;;23.90;12.55;;;7.20;99.90;;;;;;4973346;28;20047;-70
2024/03/07 11:09:52;;;;;;;31.45;17.33;;;7.20;99.90;;;;;;4972526;28;20039;-70
2024/03/07 11:12:22;;;;;;;30.08;15.00;;;7.20;99.90;;;;;;4973373;28;20186;-70
2024/03/07 11:14:51;;;;;;;17.75;9.98;;;7.20;99.90;;;;;;4988497;28;20105;-70
2024/03/07 11:17:20;;;;;;;24.48;14.52;;;7.20;99.90;;;;;;4973480;28;20035;-70
2024/03/07 11:19:49;;;;;;;28.10;17.08;;;7.40;99.90;;;;;;4972247;28;20396;-70
2024/03/07 11:22:34;;;;;;;26.80;14.85;;;7.50;99.90;;;;;;4988210;28;20058;-70
2024/03/07 11:25:06;;;;;;;31.30;16.52;;;7.80;99.90;;;;;;4973583;28;20042;-70
2024/03/07 11:27:38;;;;;;;20.15;12.35;;;8.10;99.90;;;;;;4973500;28;20070;-70
2024/03/07 11:30:08;;;;;;;21.95;13.07;;;8.30;99.90;;;;;;4973512;28;20047;-70
2024/03/07 11:32:37;;;;;;;24.35;13.02;;;8.30;99.90;;;;;;4972392;28;20058;-70
2024/03/07 11:35:14;;;;;;;26.45;14.70;;;8.20;99.90;;;;;;4972038;28;20046;-70
2024/03/07 11:37:48;;;;;;;30.15;15.45;;;8.20;99.90;;;;;;4973045;28;20043;-70
2024/03/07 11:40:19;;;;;;;25.48;15.23;;;8.10;99.90;;;;;;4972926;28;20116;-70
2024/03/07 11:42:49;;;;;;;21.80;13.15;;;8.10;99.90;;;;;;5004072;28;20134;-70
2024/03/07 11:45:32;;;;;;;27.58;15.85;;;8.10;99.90;;;;;;4973013;28;20098;-70
2024/03/07 11:48:09;;;;;;;;;;;8.10;99.90;;;;;;4988314;28;20049;-70
2024/03/07 11:50:40;;;;;;;26.77;13.85;;;8.10;99.90;;;;;;5004318;28;19932;-71
2024/03/07 11:53:08;;;;;;;21.98;12.10;;;8.10;99.90;;;;;;4973197;28;20409;-70
2024/03/07 11:55:48;;;;;;;26.70;13.10;;;7.90;99.90;;;;;;4988024;28;20054;-70
2024/03/07 11:58:17;;;;;;;29.70;16.13;;;7.80;99.90;;;;;;4988131;28;20050;-70
2024/03/07 12:00:46;;;;;;;26.92;16.17;;;7.70;99.90;;;;;;4976234;28;20039;-70
2024/03/07 12:03:16;;;;;;;28.60;14.27;;;7.70;99.90;;;;;;4991432;28;20043;-70
2024/03/07 12:05:44;;;;;;;34.63;16.27;;;7.60;99.90;;;;;;4976755;28;20042;-70
2024/03/07 12:08:12;;;;;;;30.80;15.70;;;7.60;99.90;;;;;;4991698;28;20054;-70
2024/03/07 12:10:43;;;;;;;30.55;16.23;;;7.60;99.90;;;;;;4976729;28;20039;-70
2024/03/07 12:13:16;;;;;;;26.65;15.20;;;7.80;99.90;;;;;;5008017;28;20058;-70
2024/03/07 12:15:43;;;;;;;;;;;7.90;99.90;;;;;;4992019;28;20047;-70
2024/03/07 12:18:15;;;;;;;23.58;12.98;;;8.00;99.90;;;;;;5007636;28;19922;-70
2024/03/07 12:20:46;;;;;;;25.02;15.02;;;8.10;99.90;;;;;;4990668;28;20047;-70
2024/03/07 12:23:19;;;;;;;26.63;14.90;;;8.10;99.90;;;;;;5006244;28;20039;-70
2024/03/07 12:25:46;;;;;;;29.83;15.85;;;8.20;99.90;;;;;;4976359;28;20039;-70
2024/03/07 12:28:17;;;;;;;25.55;16.45;;;8.10;99.90;;;;;;4976202;28;20113;-70
2024/03/07 12:30:47;;;;;;;;;;;8.10;99.90;;;;;;4991852;28;20075;-70
2024/03/07 12:33:14;;;;;;;23.60;13.32;;;7.90;99.90;;;;;;4976209;28;19922;-70
2024/03/07 12:35:41;;;;;;;26.13;15.00;;;7.80;99.90;;;;;;4990884;28;20050;-70
2024/03/07 12:38:15;;;;;;;17.15;9.30;;;7.70;99.90;;;;;;4976136;28;20050;-70
2024/03/07 12:40:43;;;;;;;21.33;15.60;;;7.70;99.90;;;;;;4990893;28;20055;-70
2024/03/07 12:43:22;;;;;;;25.20;15.68;;;7.60;99.90;;;;;;4990939;28;20093;-71
2024/03/07 12:45:51;;;;;;;24.67;15.90;;;7.60;99.90;;;;;;4991158;28;20039;-70
2024/03/07 12:48:21;;;;;;;29.10;16.80;;;7.60;99.90;;;;;;4990915;28;20050;-71
2024/03/07 12:50:55;;;;;;;25.33;19.65;;;7.60;99.90;;;;;;5007255;28;20403;-70